createdAt,value
2017-03-11T00:00:21.532Z,1017.65
2017-03-11T00:01:21.517Z,1017.67
2017-03-11T00:02:21.495Z,1017.59
2017-03-11T00:03:21.479Z,1017.6
2017-03-11T00:04:21.461Z,1017.59
2017-03-11T00:05:21.442Z,1017.56
2017-03-11T00:06:21.425Z,1017.48
2017-03-11T00:07:21.406Z,1017.43
2017-03-11T00:08:21.389Z,1017.37
2017-03-11T00:09:21.372Z,1017.34
2017-03-11T00:10:21.354Z,1017.35
2017-03-11T00:11:21.335Z,1017.33
2017-03-11T00:12:21.320Z,1017.34
2017-03-11T00:13:21.301Z,1017.33
2017-03-11T00:14:21.282Z,1017.29
2017-03-11T00:15:21.290Z,1017.3
2017-03-11T00:16:21.243Z,1017.3
2017-03-11T00:17:21.229Z,1017.31
2017-03-11T00:18:21.210Z,1017.35
2017-03-11T00:19:21.190Z,1017.32
2017-03-11T00:20:21.173Z,1017.32
2017-03-11T00:21:21.155Z,1017.32
2017-03-11T00:22:21.187Z,1017.3
2017-03-11T00:23:21.118Z,1017.28
2017-03-11T00:24:21.100Z,1017.27
2017-03-11T00:25:21.083Z,1017.23
2017-03-11T00:26:21.062Z,1017.3
2017-03-11T00:27:21.045Z,1017.29
2017-03-11T00:28:21.026Z,1017.3
2017-03-11T00:29:21.010Z,1017.29
2017-03-11T00:30:20.993Z,1017.33
2017-03-11T00:31:20.973Z,1017.33
2017-03-11T00:32:20.956Z,1017.35
2017-03-11T00:33:20.937Z,1017.39
2017-03-11T00:34:20.918Z,1017.4
2017-03-11T00:35:20.899Z,1017.43
2017-03-11T00:36:20.880Z,1017.44
2017-03-11T00:37:20.863Z,1017.43
2017-03-11T00:38:20.846Z,1017.43
2017-03-11T00:39:20.827Z,1017.43
2017-03-11T00:40:20.808Z,1017.45
2017-03-11T00:41:20.789Z,1017.44
2017-03-11T00:42:20.771Z,1017.45
2017-03-11T00:43:20.754Z,1017.42
2017-03-11T00:44:20.733Z,1017.45
2017-03-11T00:45:20.715Z,1017.46
2017-03-11T00:46:20.698Z,1017.44
2017-03-11T00:47:20.681Z,1017.45
2017-03-11T00:48:20.660Z,1017.43
2017-03-11T00:49:20.643Z,1017.46
2017-03-11T00:50:20.624Z,1017.37
2017-03-11T00:51:20.606Z,1017.33
2017-03-11T00:52:20.589Z,1017.3
2017-03-11T00:53:20.572Z,1017.34
2017-03-11T00:54:20.552Z,1017.37
2017-03-11T00:55:20.533Z,1017.38
2017-03-11T00:56:20.516Z,1017.4
2017-03-11T00:57:20.494Z,1017.4
2017-03-11T00:58:20.478Z,1017.48
2017-03-11T00:59:20.457Z,1017.5
2017-03-11T01:00:20.439Z,1017.56
2017-03-11T01:01:20.421Z,1017.56
2017-03-11T01:02:20.402Z,1017.56
2017-03-11T01:03:20.384Z,1017.62
2017-03-11T01:04:20.373Z,1017.57
2017-03-11T01:05:20.352Z,1017.6
2017-03-11T01:06:20.534Z,1017.57
2017-03-11T01:07:20.313Z,1017.55
2017-03-11T01:08:20.296Z,1017.54
2017-03-11T01:09:20.282Z,1017.55
2017-03-11T01:10:20.258Z,1017.51
2017-03-11T01:11:20.240Z,1017.47
2017-03-11T01:12:20.223Z,1017.45
2017-03-11T01:13:20.204Z,1017.38
2017-03-11T01:14:20.185Z,1017.39
2017-03-11T01:15:20.166Z,1017.29
2017-03-11T01:16:20.148Z,1017.28
2017-03-11T01:17:20.131Z,1017.23
2017-03-11T01:18:20.112Z,1017.18
2017-03-11T01:19:20.094Z,1017.16
2017-03-11T01:20:20.076Z,1017.16
2017-03-11T01:21:20.057Z,1017.16
2017-03-11T01:22:20.041Z,1017.14
2017-03-11T01:23:20.023Z,1017.05
2017-03-11T01:24:20.005Z,1017.06
2017-03-11T01:25:19.985Z,1016.99
2017-03-11T01:26:19.969Z,1016.91
2017-03-11T01:27:19.949Z,1016.9
2017-03-11T01:28:19.931Z,1016.87
2017-03-11T01:29:19.913Z,1016.82
2017-03-11T01:30:19.898Z,1016.8
2017-03-11T01:31:19.878Z,1016.75
2017-03-11T01:32:19.857Z,1016.75
2017-03-11T01:33:19.841Z,1016.69
2017-03-11T01:34:19.823Z,1016.66
2017-03-11T01:35:19.804Z,1016.64
2017-03-11T01:36:19.789Z,1016.62
2017-03-11T01:37:19.770Z,1016.65
2017-03-11T01:38:19.751Z,1016.59
2017-03-11T01:39:19.781Z,1016.62
2017-03-11T01:40:19.714Z,1016.56
2017-03-11T01:41:19.696Z,1016.57
2017-03-11T01:42:19.687Z,1016.56
2017-03-11T01:43:19.659Z,1016.54
2017-03-11T01:44:19.641Z,1016.55
2017-03-11T01:45:19.625Z,1016.53
2017-03-11T01:46:19.604Z,1016.53
2017-03-11T01:47:19.588Z,1016.53
2017-03-11T01:48:19.567Z,1016.5
2017-03-11T01:49:19.551Z,1016.51
2017-03-11T01:50:19.536Z,1016.53
2017-03-11T01:51:19.514Z,1016.5
2017-03-11T01:52:19.498Z,1016.47
2017-03-11T01:53:19.478Z,1016.49
2017-03-11T01:54:19.458Z,1016.49
2017-03-11T01:55:19.440Z,1016.44
2017-03-11T01:56:19.423Z,1016.48
2017-03-11T01:57:19.405Z,1016.42
2017-03-11T01:58:19.384Z,1016.41
2017-03-11T01:59:19.367Z,1016.44
2017-03-11T02:00:19.352Z,1016.4
2017-03-11T02:01:19.332Z,1016.43
2017-03-11T02:02:19.313Z,1016.42
2017-03-11T02:03:19.293Z,1016.42
2017-03-11T02:04:19.276Z,1016.36
2017-03-11T02:05:19.258Z,1016.34
2017-03-11T02:06:19.240Z,1016.33
2017-03-11T02:07:19.222Z,1016.25
2017-03-11T02:08:19.205Z,1016.28
2017-03-11T02:09:19.185Z,1016.27
2017-03-11T02:10:19.167Z,1016.25
2017-03-11T02:11:19.148Z,1016.24
2017-03-11T02:12:19.131Z,1016.3
2017-03-11T02:13:19.112Z,1016.28
2017-03-11T02:14:19.095Z,1016.29
2017-03-11T02:15:19.077Z,1016.3
2017-03-11T02:16:19.059Z,1016.32
2017-03-11T02:17:19.040Z,1016.33
2017-03-11T02:18:19.021Z,1016.35
2017-03-11T02:19:19.005Z,1016.37
2017-03-11T02:20:18.984Z,1016.31
2017-03-11T02:21:18.965Z,1016.34
2017-03-11T02:22:18.948Z,1016.29
2017-03-11T02:23:18.929Z,1016.33
2017-03-11T02:24:18.923Z,1016.27
2017-03-11T02:25:18.902Z,1016.26
2017-03-11T02:26:18.885Z,1016.22
2017-03-11T02:27:18.857Z,1016.22
2017-03-11T02:28:18.840Z,1016.24
2017-03-11T02:29:18.819Z,1016.26
2017-03-11T02:30:18.805Z,1016.23
2017-03-11T02:31:18.787Z,1016.23
2017-03-11T02:32:18.769Z,1016.2
2017-03-11T02:33:18.747Z,1016.16
2017-03-11T02:34:18.729Z,1016.16
2017-03-11T02:35:18.714Z,1016.11
2017-03-11T02:36:18.691Z,1016.19
2017-03-11T02:37:18.675Z,1016.15
2017-03-11T02:38:18.659Z,1016.17
2017-03-11T02:39:18.635Z,1016.19
2017-03-11T02:40:18.620Z,1016.19
2017-03-11T02:41:18.606Z,1016.14
2017-03-11T02:42:18.582Z,1016.14
2017-03-11T02:43:18.570Z,1016.15
2017-03-11T02:44:18.548Z,1016.15
2017-03-11T02:45:18.528Z,1016.15
2017-03-11T02:46:18.510Z,1016.12
2017-03-11T02:47:18.490Z,1016.12
2017-03-11T02:48:18.474Z,1016.07
2017-03-11T02:49:18.455Z,1016.1
2017-03-11T02:50:18.437Z,1016.08
2017-03-11T02:51:18.417Z,1016.07
2017-03-11T02:52:18.400Z,1016.05
2017-03-11T02:53:18.382Z,1016.02
2017-03-11T02:54:18.363Z,1015.99
2017-03-11T02:55:18.346Z,1015.97
2017-03-11T02:56:18.327Z,1015.96
2017-03-11T02:57:18.308Z,1015.91
2017-03-11T02:58:18.289Z,1015.91
2017-03-11T02:59:18.273Z,1015.9
2017-03-11T03:00:18.252Z,1015.87
2017-03-11T03:01:18.234Z,1015.88
2017-03-11T03:02:18.216Z,1015.88
2017-03-11T03:03:18.198Z,1015.83
2017-03-11T03:04:18.179Z,1015.84
2017-03-11T03:05:18.162Z,1015.84
2017-03-11T03:06:18.345Z,1015.87
2017-03-11T03:07:18.124Z,1015.85
2017-03-11T03:08:18.106Z,1015.86
2017-03-11T03:09:18.089Z,1015.91
2017-03-11T03:10:18.069Z,1015.87
2017-03-11T03:11:18.049Z,1015.84
2017-03-11T03:12:18.035Z,1015.83
2017-03-11T03:13:18.014Z,1015.78
2017-03-11T03:14:17.994Z,1015.76
2017-03-11T03:15:17.976Z,1015.77
2017-03-11T03:16:17.956Z,1015.79
2017-03-11T03:17:17.941Z,1015.8
2017-03-11T03:18:17.923Z,1015.86
2017-03-11T03:19:17.904Z,1015.85
2017-03-11T03:20:17.889Z,1015.9
2017-03-11T03:21:17.866Z,1015.91
2017-03-11T03:22:17.849Z,1015.88
2017-03-11T03:23:17.830Z,1015.92
2017-03-11T03:24:17.809Z,1015.88
2017-03-11T03:25:17.791Z,1015.92
2017-03-11T03:26:17.774Z,1015.91
2017-03-11T03:27:17.757Z,1015.93
2017-03-11T03:28:17.738Z,1015.86
2017-03-11T03:29:17.720Z,1015.84
2017-03-11T03:30:17.701Z,1015.86
2017-03-11T03:31:17.681Z,1015.85
2017-03-11T03:32:17.663Z,1015.85
2017-03-11T03:33:17.646Z,1015.86
2017-03-11T03:34:17.627Z,1015.85
2017-03-11T03:35:17.608Z,1015.86
2017-03-11T03:36:17.590Z,1015.84
2017-03-11T03:37:17.571Z,1015.81
2017-03-11T03:38:17.556Z,1015.82
2017-03-11T03:39:17.535Z,1015.83
2017-03-11T03:40:17.518Z,1015.85
2017-03-11T03:41:17.498Z,1015.87
2017-03-11T03:42:17.482Z,1015.85
2017-03-11T03:43:17.463Z,1015.8
2017-03-11T03:44:17.442Z,1015.82
2017-03-11T03:45:17.426Z,1015.83
2017-03-11T03:46:17.409Z,1015.85
2017-03-11T03:47:17.424Z,1015.88
2017-03-11T03:48:17.370Z,1015.85
2017-03-11T03:49:17.352Z,1015.87
2017-03-11T03:50:17.335Z,1015.86
2017-03-11T03:51:17.316Z,1015.81
2017-03-11T03:52:17.299Z,1015.8
2017-03-11T03:53:17.282Z,1015.76
2017-03-11T03:54:17.298Z,1015.7
2017-03-11T03:55:17.244Z,1015.74
2017-03-11T03:56:17.227Z,1015.75
2017-03-11T03:57:17.207Z,1015.78
2017-03-11T03:58:17.188Z,1015.79
2017-03-11T03:59:17.171Z,1015.74
2017-03-11T04:00:17.154Z,1015.77
2017-03-11T04:01:17.135Z,1015.79
2017-03-11T04:02:17.114Z,1015.77
2017-03-11T04:03:17.098Z,1015.8
2017-03-11T04:04:17.080Z,1015.77
2017-03-11T04:05:17.062Z,1015.78
2017-03-11T04:06:17.043Z,1015.83
2017-03-11T04:07:17.025Z,1015.8
2017-03-11T04:08:17.005Z,1015.83
2017-03-11T04:09:16.988Z,1015.83
2017-03-11T04:10:16.972Z,1015.81
2017-03-11T04:11:16.951Z,1015.77
2017-03-11T04:12:16.934Z,1015.78
2017-03-11T04:13:16.917Z,1015.79
2017-03-11T04:14:16.899Z,1015.76
2017-03-11T04:15:16.878Z,1015.74
2017-03-11T04:16:16.863Z,1015.76
2017-03-11T04:17:16.847Z,1015.75
2017-03-11T04:18:16.825Z,1015.7
2017-03-11T04:19:16.808Z,1015.7
2017-03-11T04:20:16.789Z,1015.72
2017-03-11T04:21:16.774Z,1015.71
2017-03-11T04:22:16.755Z,1015.71
2017-03-11T04:23:16.735Z,1015.69
2017-03-11T04:24:16.716Z,1015.7
2017-03-11T04:25:16.697Z,1015.65
2017-03-11T04:26:16.680Z,1015.67
2017-03-11T04:27:16.661Z,1015.64
2017-03-11T04:28:16.643Z,1015.56
2017-03-11T04:29:16.625Z,1015.55
2017-03-11T04:30:16.606Z,1015.52
2017-03-11T04:31:16.591Z,1015.46
2017-03-11T04:32:16.572Z,1015.45
2017-03-11T04:33:16.552Z,1015.49
2017-03-11T04:34:16.533Z,1015.46
2017-03-11T04:35:16.517Z,1015.45
2017-03-11T04:36:16.497Z,1015.44
2017-03-11T04:37:16.478Z,1015.49
2017-03-11T04:38:16.459Z,1015.45
2017-03-11T04:39:16.441Z,1015.5
2017-03-11T04:40:16.425Z,1015.45
2017-03-11T04:41:16.406Z,1015.41
2017-03-11T04:42:16.389Z,1015.45
2017-03-11T04:43:16.369Z,1015.43
2017-03-11T04:44:16.352Z,1015.44
2017-03-11T04:45:16.334Z,1015.43
2017-03-11T04:46:16.313Z,1015.43
2017-03-11T04:47:16.295Z,1015.41
2017-03-11T04:48:16.277Z,1015.46
2017-03-11T04:49:16.258Z,1015.46
2017-03-11T04:50:16.241Z,1015.44
2017-03-11T04:51:16.222Z,1015.43
2017-03-11T04:52:16.205Z,1015.4
2017-03-11T04:53:16.186Z,1015.35
2017-03-11T04:54:16.167Z,1015.37
2017-03-11T04:55:16.151Z,1015.29
2017-03-11T04:56:16.131Z,1015.32
2017-03-11T04:57:16.112Z,1015.33
2017-03-11T04:58:16.094Z,1015.32
2017-03-11T04:59:16.076Z,1015.31
2017-03-11T05:00:16.057Z,1015.33
2017-03-11T05:01:16.042Z,1015.35
2017-03-11T05:02:16.072Z,1015.37
2017-03-11T05:03:16.002Z,1015.38
2017-03-11T05:04:15.985Z,1015.39
2017-03-11T05:05:15.967Z,1015.36
2017-03-11T05:06:16.150Z,1015.33
2017-03-11T05:07:15.929Z,1015.34
2017-03-11T05:08:15.911Z,1015.33
2017-03-11T05:09:15.891Z,1015.34
2017-03-11T05:10:15.875Z,1015.34
2017-03-11T05:11:15.860Z,1015.3
2017-03-11T05:12:15.839Z,1015.28
2017-03-11T05:13:15.825Z,1015.28
2017-03-11T05:14:15.802Z,1015.26
2017-03-11T05:15:15.781Z,1015.27
2017-03-11T05:16:15.763Z,1015.26
2017-03-11T05:17:15.743Z,1015.24
2017-03-11T05:18:15.725Z,1015.27
2017-03-11T05:19:15.706Z,1015.21
2017-03-11T05:20:15.689Z,1015.28
2017-03-11T05:21:15.670Z,1015.25
2017-03-11T05:22:15.649Z,1015.18
2017-03-11T05:23:15.631Z,1015.19
2017-03-11T05:24:15.614Z,1015.22
2017-03-11T05:25:15.595Z,1015.13
2017-03-11T05:26:15.576Z,1015.17
2017-03-11T05:27:15.559Z,1015.14
2017-03-11T05:28:15.540Z,1015.12
2017-03-11T05:29:15.522Z,1015.12
2017-03-11T05:30:15.502Z,1015.09
2017-03-11T05:31:15.485Z,1015.1
2017-03-11T05:32:15.465Z,1015.08
2017-03-11T05:33:15.447Z,1015.06
2017-03-11T05:34:15.428Z,1015.06
2017-03-11T05:35:15.410Z,1015.02
2017-03-11T05:36:15.391Z,1015.04
2017-03-11T05:37:15.373Z,1015
2017-03-11T05:38:15.356Z,1014.98
2017-03-11T05:39:15.333Z,1014.93
2017-03-11T05:40:15.316Z,1014.95
2017-03-11T05:41:15.297Z,1014.94
2017-03-11T05:42:15.278Z,1014.97
2017-03-11T05:43:15.259Z,1014.97
2017-03-11T05:44:15.240Z,1014.95
2017-03-11T05:45:15.222Z,1014.96
2017-03-11T05:46:15.202Z,1014.93
2017-03-11T05:47:15.183Z,1014.95
2017-03-11T05:48:15.163Z,1014.9
2017-03-11T05:49:15.145Z,1014.92
2017-03-11T05:50:15.127Z,1014.84
2017-03-11T05:51:15.110Z,1014.92
2017-03-11T05:52:15.090Z,1014.86
2017-03-11T05:53:15.075Z,1014.87
2017-03-11T05:54:15.054Z,1014.87
2017-03-11T05:55:15.032Z,1014.86
2017-03-11T05:56:15.014Z,1014.82
2017-03-11T05:57:14.996Z,1014.81
2017-03-11T05:58:14.976Z,1014.81
2017-03-11T05:59:14.960Z,1014.76
2017-03-11T06:00:14.936Z,1014.82
2017-03-11T06:01:14.921Z,1014.79
2017-03-11T06:02:14.900Z,1014.8
2017-03-11T06:03:14.880Z,1014.84
2017-03-11T06:04:14.866Z,1014.85
2017-03-11T06:05:14.842Z,1014.87
2017-03-11T06:06:14.823Z,1014.87
2017-03-11T06:07:14.811Z,1014.89
2017-03-11T06:08:14.785Z,1014.87
2017-03-11T06:09:14.772Z,1014.9
2017-03-11T06:10:14.747Z,1014.91
2017-03-11T06:11:14.728Z,1014.9
2017-03-11T06:12:14.710Z,1014.92
2017-03-11T06:13:14.689Z,1014.92
2017-03-11T06:14:14.671Z,1014.96
2017-03-11T06:15:14.652Z,1014.87
2017-03-11T06:16:14.634Z,1014.89
2017-03-11T06:17:14.612Z,1014.92
2017-03-11T06:18:14.593Z,1014.87
2017-03-11T06:19:14.575Z,1014.87
2017-03-11T06:20:14.557Z,1014.9
2017-03-11T06:21:14.536Z,1014.92
2017-03-11T06:22:14.515Z,1014.9
2017-03-11T06:23:14.518Z,1014.87
2017-03-11T06:24:14.478Z,1014.85
2017-03-11T06:25:14.458Z,1014.87
2017-03-11T06:26:14.439Z,1014.87
2017-03-11T06:27:14.419Z,1014.88
2017-03-11T06:28:14.400Z,1014.87
2017-03-11T06:29:14.381Z,1014.84
2017-03-11T06:30:14.361Z,1014.8
2017-03-11T06:31:14.342Z,1014.86
2017-03-11T06:32:14.322Z,1014.83
2017-03-11T06:33:14.316Z,1014.9
2017-03-11T06:34:14.286Z,1014.91
2017-03-11T06:35:14.267Z,1014.91
2017-03-11T06:36:14.248Z,1014.89
2017-03-11T06:37:14.227Z,1014.91
2017-03-11T06:38:14.208Z,1014.92
2017-03-11T06:39:14.192Z,1014.9
2017-03-11T06:40:14.171Z,1014.87
2017-03-11T06:41:14.150Z,1014.85
2017-03-11T06:42:14.135Z,1014.87
2017-03-11T06:43:14.110Z,1014.85
2017-03-11T06:44:14.092Z,1014.89
2017-03-11T06:45:14.075Z,1014.86
2017-03-11T06:46:14.053Z,1014.87
2017-03-11T06:47:14.032Z,1014.85
2017-03-11T06:48:14.014Z,1014.83
2017-03-11T06:49:13.998Z,1014.83
2017-03-11T06:50:13.974Z,1014.86
2017-03-11T06:51:13.957Z,1014.84
2017-03-11T06:52:13.937Z,1014.84
2017-03-11T06:53:13.918Z,1014.83
2017-03-11T06:54:13.898Z,1014.84
2017-03-11T06:55:13.880Z,1014.86
2017-03-11T06:56:13.859Z,1014.84
2017-03-11T06:57:13.840Z,1014.8
2017-03-11T06:58:13.821Z,1014.81
2017-03-11T06:59:13.804Z,1014.82
2017-03-11T07:00:13.783Z,1014.85
2017-03-11T07:01:13.764Z,1014.84
2017-03-11T07:02:13.744Z,1014.84
2017-03-11T07:03:13.728Z,1014.88
2017-03-11T07:04:13.707Z,1014.89
2017-03-11T07:05:13.687Z,1014.89
2017-03-11T07:06:13.869Z,1014.93
2017-03-11T07:07:13.648Z,1014.95
2017-03-11T07:08:13.633Z,1014.92
2017-03-11T07:09:13.610Z,1014.93
2017-03-11T07:10:13.591Z,1014.87
2017-03-11T07:11:13.573Z,1014.89
2017-03-11T07:12:13.552Z,1014.9
2017-03-11T07:13:13.534Z,1014.88
2017-03-11T07:14:13.515Z,1014.9
2017-03-11T07:15:13.496Z,1014.87
2017-03-11T07:16:13.477Z,1014.87
2017-03-11T07:17:13.458Z,1014.87
2017-03-11T07:18:13.440Z,1014.87
2017-03-11T07:19:13.418Z,1014.87
2017-03-11T07:20:13.402Z,1014.91
2017-03-11T07:21:13.383Z,1014.88
2017-03-11T07:22:13.363Z,1014.85
2017-03-11T07:23:13.345Z,1014.82
2017-03-11T07:24:13.325Z,1014.85
2017-03-11T07:25:13.307Z,1014.82
2017-03-11T07:26:13.288Z,1014.8
2017-03-11T07:27:13.269Z,1014.81
2017-03-11T07:28:13.253Z,1014.85
2017-03-11T07:29:13.231Z,1014.8
2017-03-11T07:30:13.212Z,1014.8
2017-03-11T07:31:13.194Z,1014.82
2017-03-11T07:32:13.174Z,1014.83
2017-03-11T07:33:13.185Z,1014.84
2017-03-11T07:34:13.136Z,1014.84
2017-03-11T07:35:13.118Z,1014.84
2017-03-11T07:36:13.099Z,1014.82
2017-03-11T07:37:13.081Z,1014.83
2017-03-11T07:38:13.064Z,1014.86
2017-03-11T07:39:13.044Z,1014.85
2017-03-11T07:40:13.028Z,1014.86
2017-03-11T07:41:13.007Z,1014.84
2017-03-11T07:42:12.991Z,1014.83
2017-03-11T07:43:12.969Z,1014.82
2017-03-11T07:44:12.954Z,1014.84
2017-03-11T07:45:12.934Z,1014.81
2017-03-11T07:46:12.917Z,1014.79
2017-03-11T07:47:12.907Z,1014.78
2017-03-11T07:48:12.878Z,1014.7
2017-03-11T07:49:12.859Z,1014.7
2017-03-11T07:50:12.843Z,1014.72
2017-03-11T07:51:12.825Z,1014.72
2017-03-11T07:52:12.807Z,1014.76
2017-03-11T07:53:12.789Z,1014.7
2017-03-11T07:54:12.776Z,1014.71
2017-03-11T07:55:12.785Z,1014.71
2017-03-11T07:56:12.737Z,1014.75
2017-03-11T07:57:12.717Z,1014.73
2017-03-11T07:58:12.702Z,1014.73
2017-03-11T07:59:12.680Z,1014.75
2017-03-11T08:00:12.666Z,1014.74
2017-03-11T08:01:12.647Z,1014.73
2017-03-11T08:02:12.629Z,1014.8
2017-03-11T08:03:12.614Z,1014.74
2017-03-11T08:04:12.592Z,1014.75
2017-03-11T08:05:12.576Z,1014.76
2017-03-11T08:06:12.559Z,1014.75
2017-03-11T08:07:12.541Z,1014.75
2017-03-11T08:08:12.523Z,1014.79
2017-03-11T08:09:12.515Z,1014.8
2017-03-11T08:10:12.488Z,1014.74
2017-03-11T08:11:12.471Z,1014.73
2017-03-11T08:12:12.454Z,1014.78
2017-03-11T08:13:12.438Z,1014.74
2017-03-11T08:14:12.420Z,1014.78
2017-03-11T08:15:12.404Z,1014.77
2017-03-11T08:16:12.389Z,1014.73
2017-03-11T08:17:12.371Z,1014.68
2017-03-11T08:18:12.352Z,1014.67
2017-03-11T08:19:12.338Z,1014.72
2017-03-11T08:20:12.323Z,1014.74
2017-03-11T08:21:12.303Z,1014.75
2017-03-11T08:22:12.286Z,1014.91
2017-03-11T08:23:12.273Z,1014.92
2017-03-11T08:24:12.305Z,1014.94
2017-03-11T08:25:12.288Z,1014.93
2017-03-11T08:26:12.222Z,1015.01
2017-03-11T08:27:12.257Z,1015
2017-03-11T08:28:12.192Z,1014.99
2017-03-11T08:29:12.178Z,1015.01
2017-03-11T08:30:12.164Z,1015.04
2017-03-11T08:31:12.151Z,1015.05
2017-03-11T08:32:12.139Z,1015.05
2017-03-11T08:33:12.127Z,1015.04
2017-03-11T08:34:12.112Z,1015.08
2017-03-11T08:35:12.101Z,1015.05
2017-03-11T08:36:12.088Z,1015.11
2017-03-11T08:37:12.109Z,1015.09
2017-03-11T08:38:12.067Z,1015.13
2017-03-11T08:39:12.057Z,1015.15
2017-03-11T08:40:12.044Z,1015.14
2017-03-11T08:41:12.036Z,1015.14
2017-03-11T08:42:12.028Z,1015.15
2017-03-11T08:43:12.017Z,1015.17
2017-03-11T08:44:12.007Z,1015.14
2017-03-11T08:45:12.000Z,1015.13
2017-03-11T08:46:11.992Z,1015.07
2017-03-11T08:47:11.982Z,1015.07
2017-03-11T08:48:11.974Z,1014.99
2017-03-11T08:49:11.968Z,1015.04
2017-03-11T08:50:11.959Z,1015.09
2017-03-11T08:51:11.956Z,1015.04
2017-03-11T08:52:11.942Z,1014.97
2017-03-11T08:53:11.937Z,1014.97
2017-03-11T08:54:11.929Z,1014.96
2017-03-11T08:55:11.920Z,1015.06
2017-03-11T08:56:11.913Z,1015.04
2017-03-11T08:57:11.907Z,1015.08
2017-03-11T08:58:11.898Z,1015
2017-03-11T08:59:11.894Z,1015.04
2017-03-11T09:00:11.891Z,1015.02
2017-03-11T09:01:11.881Z,1015
2017-03-11T09:02:11.873Z,1014.96
2017-03-11T09:03:11.866Z,1015
2017-03-11T09:04:11.859Z,1014.94
2017-03-11T09:05:11.854Z,1014.97
2017-03-11T09:06:12.046Z,1015.01
2017-03-11T09:07:11.839Z,1015
2017-03-11T09:08:11.833Z,1014.99
2017-03-11T09:09:11.824Z,1015.02
2017-03-11T09:10:11.832Z,1014.97
2017-03-11T09:11:11.810Z,1015.02
2017-03-11T09:12:11.805Z,1015.04
2017-03-11T09:13:11.797Z,1014.99
2017-03-11T09:14:11.788Z,1015
2017-03-11T09:15:11.780Z,1014.97
2017-03-11T09:16:11.774Z,1014.91
2017-03-11T09:17:11.768Z,1014.98
2017-03-11T09:18:11.763Z,1014.94
2017-03-11T09:19:11.753Z,1014.94
2017-03-11T09:20:11.744Z,1014.89
2017-03-11T09:21:11.738Z,1014.87
2017-03-11T09:22:11.733Z,1014.88
2017-03-11T09:23:11.725Z,1014.85
2017-03-11T09:24:11.717Z,1014.84
2017-03-11T09:25:11.710Z,1014.83
2017-03-11T09:26:11.703Z,1014.82
2017-03-11T09:27:11.696Z,1014.86
2017-03-11T09:28:11.688Z,1014.86
2017-03-11T09:29:11.681Z,1014.91
2017-03-11T09:30:11.674Z,1014.85
2017-03-11T09:31:11.668Z,1014.83
2017-03-11T09:32:11.661Z,1014.89
2017-03-11T09:33:11.655Z,1014.91
2017-03-11T09:34:11.650Z,1014.88
2017-03-11T09:35:11.640Z,1014.79
2017-03-11T09:36:11.635Z,1014.77
2017-03-11T09:37:11.630Z,1014.77
2017-03-11T09:38:11.623Z,1014.72
2017-03-11T09:39:11.618Z,1014.76
2017-03-11T09:40:11.610Z,1014.74
2017-03-11T09:41:11.607Z,1014.75
2017-03-11T09:42:11.598Z,1014.7
2017-03-11T09:43:11.594Z,1014.71
2017-03-11T09:44:11.584Z,1014.68
2017-03-11T09:45:11.622Z,1014.67
2017-03-11T09:46:11.578Z,1014.63
2017-03-11T09:47:11.566Z,1014.64
2017-03-11T09:48:11.561Z,1014.61
2017-03-11T09:49:11.555Z,1014.63
2017-03-11T09:50:11.547Z,1014.58
2017-03-11T09:51:11.543Z,1014.57
2017-03-11T09:52:11.537Z,1014.57
2017-03-11T09:53:11.530Z,1014.56
2017-03-11T09:54:11.524Z,1014.56
2017-03-11T09:55:11.518Z,1014.55
2017-03-11T09:56:11.511Z,1014.55
2017-03-11T09:57:11.509Z,1014.54
2017-03-11T09:58:11.498Z,1014.53
2017-03-11T09:59:11.492Z,1014.49
2017-03-11T10:00:11.486Z,1014.52
2017-03-11T10:01:11.480Z,1014.51
2017-03-11T10:02:11.474Z,1014.53
2017-03-11T10:03:11.467Z,1014.55
2017-03-11T10:04:11.462Z,1014.56
2017-03-11T10:05:11.453Z,1014.58
2017-03-11T10:06:11.453Z,1014.53
2017-03-11T10:07:11.441Z,1014.55
2017-03-11T10:08:11.438Z,1014.56
2017-03-11T10:09:11.429Z,1014.52
2017-03-11T10:10:11.423Z,1014.51
2017-03-11T10:11:11.419Z,1014.44
2017-03-11T10:12:11.415Z,1014.43
2017-03-11T10:13:11.410Z,1014.4
2017-03-11T10:14:11.401Z,1014.42
2017-03-11T10:15:11.398Z,1014.41
2017-03-11T10:16:11.388Z,1014.36
2017-03-11T10:17:11.389Z,1014.36
2017-03-11T10:18:11.378Z,1014.43
2017-03-11T10:19:11.373Z,1014.39
2017-03-11T10:20:11.367Z,1014.38
2017-03-11T10:21:11.361Z,1014.39
2017-03-11T10:22:11.359Z,1014.39
2017-03-11T10:23:11.349Z,1014.36
2017-03-11T10:24:11.350Z,1014.34
2017-03-11T10:25:11.341Z,1014.41
2017-03-11T10:26:11.333Z,1014.36
2017-03-11T10:27:11.328Z,1014.39
2017-03-11T10:28:11.326Z,1014.38
2017-03-11T10:29:11.317Z,1014.38
2017-03-11T10:30:11.312Z,1014.37
2017-03-11T10:31:11.307Z,1014.38
2017-03-11T10:32:11.300Z,1014.32
2017-03-11T10:33:11.295Z,1014.35
2017-03-11T10:34:11.292Z,1014.36
2017-03-11T10:35:11.288Z,1014.34
2017-03-11T10:36:11.282Z,1014.35
2017-03-11T10:37:11.275Z,1014.37
2017-03-11T10:38:11.272Z,1014.36
2017-03-11T10:39:11.266Z,1014.4
2017-03-11T10:40:11.267Z,1014.4
2017-03-11T10:41:11.255Z,1014.43
2017-03-11T10:42:11.252Z,1014.37
2017-03-11T10:43:11.246Z,1014.42
2017-03-11T10:44:11.241Z,1014.37
2017-03-11T10:45:11.236Z,1014.39
2017-03-11T10:46:11.231Z,1014.41
2017-03-11T10:47:11.227Z,1014.41
2017-03-11T10:48:11.220Z,1014.41
2017-03-11T10:49:11.220Z,1014.41
2017-03-11T10:50:11.213Z,1014.38
2017-03-11T10:51:11.207Z,1014.39
2017-03-11T10:52:11.218Z,1014.35
2017-03-11T10:53:11.199Z,1014.4
2017-03-11T10:54:11.195Z,1014.38
2017-03-11T10:55:11.190Z,1014.41
2017-03-11T10:56:11.186Z,1014.38
2017-03-11T10:57:11.182Z,1014.42
2017-03-11T10:58:11.207Z,1014.4
2017-03-11T10:59:11.183Z,1014.42
2017-03-11T11:00:11.171Z,1014.43
2017-03-11T11:01:11.166Z,1014.47
2017-03-11T11:02:11.162Z,1014.45
2017-03-11T11:03:11.163Z,1014.4
2017-03-11T11:04:11.158Z,1014.39
2017-03-11T11:05:11.153Z,1014.39
2017-03-11T11:06:11.149Z,1014.39
2017-03-11T11:07:11.148Z,1014.35
2017-03-11T11:08:11.146Z,1014.37
2017-03-11T11:09:11.143Z,1014.34
2017-03-11T11:10:11.149Z,1014.34
2017-03-11T11:11:11.135Z,1014.34
2017-03-11T11:12:11.137Z,1014.3
2017-03-11T11:13:11.129Z,1014.28
2017-03-11T11:14:11.126Z,1014.29
2017-03-11T11:15:11.126Z,1014.26
2017-03-11T11:16:11.120Z,1014.23
2017-03-11T11:17:11.124Z,1014.23
2017-03-11T11:18:11.114Z,1014.18
2017-03-11T11:19:11.112Z,1014.16
2017-03-11T11:20:11.106Z,1014.13
2017-03-11T11:21:11.105Z,1014.13
2017-03-11T11:22:11.104Z,1014.12
2017-03-11T11:23:11.098Z,1014.12
2017-03-11T11:24:11.095Z,1014.12
2017-03-11T11:25:11.093Z,1014.11
2017-03-11T11:26:11.091Z,1014.09
2017-03-11T11:27:11.087Z,1014.09
2017-03-11T11:28:11.083Z,1014.1
2017-03-11T11:29:11.081Z,1014.08
2017-03-11T11:30:11.077Z,1014.09
2017-03-11T11:31:11.075Z,1014.08
2017-03-11T11:32:11.072Z,1014.08
2017-03-11T11:33:11.068Z,1014.07
2017-03-11T11:34:11.066Z,1014.08
2017-03-11T11:35:11.064Z,1014.05
2017-03-11T11:36:11.059Z,1014.04
2017-03-11T11:37:11.057Z,1014.06
2017-03-11T11:38:11.057Z,1014.04
2017-03-11T11:39:11.053Z,1014.02
2017-03-11T11:40:11.204Z,1013.97
2017-03-11T11:41:11.049Z,1013.97
2017-03-11T11:42:11.046Z,1013.99
2017-03-11T11:43:11.039Z,1013.94
2017-03-11T11:44:11.036Z,1013.92
2017-03-11T11:45:11.033Z,1013.87
2017-03-11T11:46:11.030Z,1013.85
2017-03-11T11:47:11.027Z,1013.86
2017-03-11T11:48:11.025Z,1013.81
2017-03-11T11:49:11.022Z,1013.77
2017-03-11T11:50:11.017Z,1013.84
2017-03-11T11:51:11.014Z,1013.76
2017-03-11T11:52:11.009Z,1013.78
2017-03-11T11:53:11.007Z,1013.74
2017-03-11T11:54:11.001Z,1013.77
2017-03-11T11:55:11.000Z,1013.77
2017-03-11T11:56:10.999Z,1013.8
2017-03-11T11:57:10.992Z,1013.78
2017-03-11T11:58:10.989Z,1013.75
2017-03-11T11:59:10.986Z,1013.71
2017-03-11T12:00:10.981Z,1013.71
2017-03-11T12:01:10.979Z,1013.7
2017-03-11T12:02:10.973Z,1013.7
2017-03-11T12:03:10.973Z,1013.72
2017-03-11T12:04:10.969Z,1013.7
2017-03-11T12:05:10.964Z,1013.7
2017-03-11T12:06:10.963Z,1013.7
2017-03-11T12:07:10.958Z,1013.67
2017-03-11T12:08:10.954Z,1013.61